CheckWX is a tool to help pilots better visualize weather data.  It is not intended as a substitute for an official pre-flight weather briefing.

07:41:10 UTC

KOVE METAR
Oroville Municipal Airport
Oroville, California, USA
Current

48 mins ago

KOVE 210653Z AUTO 15013KT 9SM -RA SCT060 OVC080 13/07 A2991 RMK AO2 RAB47 SLP130 P0000 T01330072
Observed
May-21 @ 06:53 UTC
Wind
  • 150° at 13 KTS
Visibility
9 SM
Flight Rules
VFR
Conditions
Light Rain
Cloud Levels
  • Scattered at 6,000' AGL
  • Overcast at 8,000' AGL
Temperature
13°C / 55°F
Dewpoint
C / 45°F
Humidity
67%
Altimeter
29.91" Hg
Pressure
1012.92 hPa
Current Rain
0.01"
Previous

2 hours ago

KOVE 210553Z AUTO 17013KT 10SM BKN100 OVC120 14/07 A2991 RMK AO2 SLP131 T01440072 10206 20144 53013
Observed
May-21 @ 05:53 UTC
Wind
  • 170° at 13 KTS
Visibility
10 SM
Flight Rules
VFR
Cloud Levels
  • Broken at 10,000' AGL
  • Overcast at 12,000' AGL
Temperature
14°C / 57°F
Dewpoint
C / 45°F
Humidity
63%
Altimeter
29.91" Hg
Pressure
1012.92 hPa
Previous

3 hours ago

KOVE 210453Z AUTO 15014G19KT 10SM FEW100 15/07 A2989 RMK AO2 SLP124 T01500072
Observed
May-21 @ 04:53 UTC
Wind
  • 150° at 14 KTS
  • Gusting to 19 KTS
Visibility
10 SM
Flight Rules
VFR
Cloud Levels
  • Few at 10,000' AGL
Temperature
15°C / 59°F
Dewpoint
C / 45°F
Humidity
59%
Altimeter
29.89" Hg
Pressure
1012.22 hPa